sensor_id;sensor_type;location;lat;lon;timestamp;temperature;humidity
3684;DHT22;1858;48.716;9.648;2023-03-26T00:01:38;9.50;99.90
3684;DHT22;1858;48.716;9.648;2023-03-26T00:04:07;9.50;99.90
3684;DHT22;1858;48.716;9.648;2023-03-26T00:06:37;9.30;99.90
3684;DHT22;1858;48.716;9.648;2023-03-26T00:09:08;9.20;99.90
3684;DHT22;1858;48.716;9.648;2023-03-26T00:11:36;9.20;99.90
3684;DHT22;1858;48.716;9.648;2023-03-26T00:14:05;9.20;99.90
3684;DHT22;1858;48.716;9.648;2023-03-26T00:16:33;9.20;99.90
3684;DHT22;1858;48.716;9.648;2023-03-26T00:19:02;9.10;99.90
3684;DHT22;1858;48.716;9.648;2023-03-26T00:21:31;9.20;99.90
3684;DHT22;1858;48.716;9.648;2023-03-26T00:24:02;9.20;99.90
3684;DHT22;1858;48.716;9.648;2023-03-26T00:26:32;9.20;99.90
3684;DHT22;1858;48.716;9.648;2023-03-26T00:29:01;9.20;99.90
3684;DHT22;1858;48.716;9.648;2023-03-26T00:31:30;9.10;99.90
3684;DHT22;1858;48.716;9.648;2023-03-26T00:33:58;9.00;99.90
3684;DHT22;1858;48.716;9.648;2023-03-26T00:36:28;8.90;99.90
3684;DHT22;1858;48.716;9.648;2023-03-26T00:38:57;8.80;99.90
3684;DHT22;1858;48.716;9.648;2023-03-26T00:41:25;8.70;1.00
3684;DHT22;1858;48.716;9.648;2023-03-26T00:43:57;8.60;1.00
3684;DHT22;1858;48.716;9.648;2023-03-26T00:46:27;8.60;1.00
3684;DHT22;1858;48.716;9.648;2023-03-26T00:48:56;8.40;1.00
3684;DHT22;1858;48.716;9.648;2023-03-26T00:51:25;8.40;1.00
3684;DHT22;1858;48.716;9.648;2023-03-26T00:53:55;8.40;1.00
3684;DHT22;1858;48.716;9.648;2023-03-26T00:56:24;8.30;1.00
3684;DHT22;1858;48.716;9.648;2023-03-26T00:58:53;8.30;1.00
3684;DHT22;1858;48.716;9.648;2023-03-26T01:01:24;8.30;1.00
3684;DHT22;1858;48.716;9.648;2023-03-26T01:03:56;8.20;1.00
3684;DHT22;1858;48.716;9.648;2023-03-26T01:06:28;8.20;1.00
3684;DHT22;1858;48.716;9.648;2023-03-26T01:09:05;8.20;1.00
3684;DHT22;1858;48.716;9.648;2023-03-26T01:11:34;8.20;1.00
3684;DHT22;1858;48.716;9.648;2023-03-26T01:14:05;8.20;1.00
3684;DHT22;1858;48.716;9.648;2023-03-26T01:16:39;8.10;1.00
3684;DHT22;1858;48.716;9.648;2023-03-26T01:21:49;8.10;1.00
3684;DHT22;1858;48.716;9.648;2023-03-26T01:24:17;8.10;1.00
3684;DHT22;1858;48.716;9.648;2023-03-26T01:27:10;8.10;1.00
3684;DHT22;1858;48.716;9.648;2023-03-26T01:32:23;8.00;1.00
3684;DHT22;1858;48.716;9.648;2023-03-26T01:37:57;7.90;1.00
3684;DHT22;1858;48.716;9.648;2023-03-26T01:40:36;7.90;1.00
3684;DHT22;1858;48.716;9.648;2023-03-26T01:43:19;7.90;1.00
3684;DHT22;1858;48.716;9.648;2023-03-26T01:45:46;7.80;1.00
3684;DHT22;1858;48.716;9.648;2023-03-26T01:48:16;7.80;1.00
3684;DHT22;1858;48.716;9.648;2023-03-26T01:50:45;7.80;1.00
3684;DHT22;1858;48.716;9.648;2023-03-26T01:53:15;7.80;1.00
3684;DHT22;1858;48.716;9.648;2023-03-26T01:55:57;7.80;1.00
3684;DHT22;1858;48.716;9.648;2023-03-26T01:59:17;7.80;1.00
3684;DHT22;1858;48.716;9.648;2023-03-26T02:01:08;7.80;1.00
3684;DHT22;1858;48.716;9.648;2023-03-26T02:03:38;7.80;1.00
3684;DHT22;1858;48.716;9.648;2023-03-26T02:06:22;7.80;1.00
3684;DHT22;1858;48.716;9.648;2023-03-26T02:09:04;7.80;1.00
3684;DHT22;1858;48.716;9.648;2023-03-26T02:11:33;7.80;1.00
3684;DHT22;1858;48.716;9.648;2023-03-26T02:14:04;7.90;1.00
3684;DHT22;1858;48.716;9.648;2023-03-26T02:16:32;7.90;1.00
3684;DHT22;1858;48.716;9.648;2023-03-26T02:19:02;7.90;1.00
3684;DHT22;1858;48.716;9.648;2023-03-26T02:21:31;7.80;1.00
3684;DHT22;1858;48.716;9.648;2023-03-26T02:24:01;7.80;1.00
3684;DHT22;1858;48.716;9.648;2023-03-26T02:26:31;7.80;1.00
3684;DHT22;1858;48.716;9.648;2023-03-26T02:29:00;7.80;1.00
3684;DHT22;1858;48.716;9.648;2023-03-26T02:31:28;7.80;1.00
3684;DHT22;1858;48.716;9.648;2023-03-26T02:33:56;7.80;1.00
3684;DHT22;1858;48.716;9.648;2023-03-26T02:36:25;7.80;1.00
3684;DHT22;1858;48.716;9.648;2023-03-26T02:38:56;7.80;1.00
3684;DHT22;1858;48.716;9.648;2023-03-26T02:41:26;7.80;1.00
3684;DHT22;1858;48.716;9.648;2023-03-26T02:43:54;7.70;1.00
3684;DHT22;1858;48.716;9.648;2023-03-26T02:46:23;7.70;1.00
3684;DHT22;1858;48.716;9.648;2023-03-26T02:48:51;7.80;1.00
3684;DHT22;1858;48.716;9.648;2023-03-26T02:51:20;7.80;1.00
3684;DHT22;1858;48.716;9.648;2023-03-26T02:53:48;7.80;1.00
3684;DHT22;1858;48.716;9.648;2023-03-26T02:56:17;7.80;1.00
3684;DHT22;1858;48.716;9.648;2023-03-26T02:58:45;7.80;1.00
3684;DHT22;1858;48.716;9.648;2023-03-26T03:01:14;7.80;1.00
3684;DHT22;1858;48.716;9.648;2023-03-26T03:03:44;7.90;1.00
3684;DHT22;1858;48.716;9.648;2023-03-26T03:06:16;7.80;1.00
3684;DHT22;1858;48.716;9.648;2023-03-26T03:08:45;7.70;1.00
3684;DHT22;1858;48.716;9.648;2023-03-26T03:11:18;7.70;1.00
3684;DHT22;1858;48.716;9.648;2023-03-26T03:13:52;7.70;1.00
3684;DHT22;1858;48.716;9.648;2023-03-26T03:16:20;7.70;1.00
3684;DHT22;1858;48.716;9.648;2023-03-26T03:18:48;7.70;1.00
3684;DHT22;1858;48.716;9.648;2023-03-26T03:21:19;7.80;1.00
3684;DHT22;1858;48.716;9.648;2023-03-26T03:23:48;7.80;1.00
3684;DHT22;1858;48.716;9.648;2023-03-26T03:26:19;7.80;1.00
3684;DHT22;1858;48.716;9.648;2023-03-26T03:28:52;7.80;1.00
3684;DHT22;1858;48.716;9.648;2023-03-26T03:31:24;7.90;1.00
3684;DHT22;1858;48.716;9.648;2023-03-26T03:33:53;7.70;1.00
3684;DHT22;1858;48.716;9.648;2023-03-26T03:36:22;7.70;1.00
3684;DHT22;1858;48.716;9.648;2023-03-26T03:38:50;7.80;1.00
3684;DHT22;1858;48.716;9.648;2023-03-26T03:41:18;7.80;1.00
3684;DHT22;1858;48.716;9.648;2023-03-26T03:43:47;7.80;1.00
3684;DHT22;1858;48.716;9.648;2023-03-26T03:46:16;7.80;1.00
3684;DHT22;1858;48.716;9.648;2023-03-26T03:48:44;7.90;1.00
3684;DHT22;1858;48.716;9.648;2023-03-26T03:51:16;7.90;1.00
3684;DHT22;1858;48.716;9.648;2023-03-26T03:53:44;7.90;1.00
3684;DHT22;1858;48.716;9.648;2023-03-26T03:56:13;7.80;1.00
3684;DHT22;1858;48.716;9.648;2023-03-26T03:58:44;7.80;1.00
3684;DHT22;1858;48.716;9.648;2023-03-26T04:01:13;7.70;1.00
3684;DHT22;1858;48.716;9.648;2023-03-26T04:03:43;7.80;1.00
3684;DHT22;1858;48.716;9.648;2023-03-26T04:06:12;7.80;1.00
3684;DHT22;1858;48.716;9.648;2023-03-26T04:08:42;7.80;1.00
3684;DHT22;1858;48.716;9.648;2023-03-26T04:11:11;7.90;1.00
3684;DHT22;1858;48.716;9.648;2023-03-26T04:13:40;7.90;1.00
3684;DHT22;1858;48.716;9.648;2023-03-26T04:16:09;7.90;1.00
3684;DHT22;1858;48.716;9.648;2023-03-26T04:18:37;7.90;1.00
3684;DHT22;1858;48.716;9.648;2023-03-26T04:21:06;7.90;1.00
3684;DHT22;1858;48.716;9.648;2023-03-26T04:23:35;8.00;1.00
3684;DHT22;1858;48.716;9.648;2023-03-26T04:26:05;8.00;1.00
3684;DHT22;1858;48.716;9.648;2023-03-26T04:28:44;7.90;1.00
3684;DHT22;1858;48.716;9.648;2023-03-26T04:31:16;7.90;1.00
3684;DHT22;1858;48.716;9.648;2023-03-26T04:33:46;7.90;1.00
3684;DHT22;1858;48.716;9.648;2023-03-26T04:36:15;7.90;1.00
3684;DHT22;1858;48.716;9.648;2023-03-26T04:38:46;7.90;6.70
3684;DHT22;1858;48.716;9.648;2023-03-26T04:41:18;7.90;20.00
3684;DHT22;1858;48.716;9.648;2023-03-26T04:43:48;7.90;40.20
3684;DHT22;1858;48.716;9.648;2023-03-26T04:46:16;8.00;49.60
3684;DHT22;1858;48.716;9.648;2023-03-26T04:48:48;8.00;20.70
3684;DHT22;1858;48.716;9.648;2023-03-26T04:51:17;8.00;1.00
3684;DHT22;1858;48.716;9.648;2023-03-26T04:53:53;7.90;1.00
3684;DHT22;1858;48.716;9.648;2023-03-26T04:56:35;8.00;1.00
3684;DHT22;1858;48.716;9.648;2023-03-26T04:59:02;8.10;1.00
3684;DHT22;1858;48.716;9.648;2023-03-26T05:01:31;8.10;1.00
3684;DHT22;1858;48.716;9.648;2023-03-26T05:03:59;8.00;1.00
3684;DHT22;1858;48.716;9.648;2023-03-26T05:06:27;8.10;1.00
3684;DHT22;1858;48.716;9.648;2023-03-26T05:08:56;8.00;1.00
3684;DHT22;1858;48.716;9.648;2023-03-26T05:11:30;8.00;1.00
3684;DHT22;1858;48.716;9.648;2023-03-26T05:14:00;8.00;1.00
3684;DHT22;1858;48.716;9.648;2023-03-26T05:16:26;7.90;1.00
3684;DHT22;1858;48.716;9.648;2023-03-26T05:18:54;7.90;1.00
3684;DHT22;1858;48.716;9.648;2023-03-26T05:21:23;7.90;1.00
3684;DHT22;1858;48.716;9.648;2023-03-26T05:23:51;7.80;1.00
3684;DHT22;1858;48.716;9.648;2023-03-26T05:26:20;7.90;1.00
3684;DHT22;1858;48.716;9.648;2023-03-26T05:28:48;7.80;1.00
3684;DHT22;1858;48.716;9.648;2023-03-26T05:31:19;7.70;1.00
3684;DHT22;1858;48.716;9.648;2023-03-26T05:33:54;7.60;1.00
3684;DHT22;1858;48.716;9.648;2023-03-26T05:36:26;7.60;1.00
3684;DHT22;1858;48.716;9.648;2023-03-26T05:38:55;7.60;1.00
3684;DHT22;1858;48.716;9.648;2023-03-26T05:41:23;7.60;1.00
3684;DHT22;1858;48.716;9.648;2023-03-26T05:43:52;7.60;1.00
3684;DHT22;1858;48.716;9.648;2023-03-26T05:46:22;7.70;1.00
3684;DHT22;1858;48.716;9.648;2023-03-26T05:48:51;7.80;1.00
3684;DHT22;1858;48.716;9.648;2023-03-26T05:51:20;7.90;1.00
3684;DHT22;1858;48.716;9.648;2023-03-26T05:53:50;8.00;1.00
3684;DHT22;1858;48.716;9.648;2023-03-26T05:56:18;8.10;1.00
3684;DHT22;1858;48.716;9.648;2023-03-26T05:58:47;8.10;1.00
3684;DHT22;1858;48.716;9.648;2023-03-26T06:01:19;8.10;1.00
3684;DHT22;1858;48.716;9.648;2023-03-26T06:03:47;8.20;1.00
3684;DHT22;1858;48.716;9.648;2023-03-26T06:06:19;8.20;1.00
3684;DHT22;1858;48.716;9.648;2023-03-26T06:08:50;8.30;1.00
3684;DHT22;1858;48.716;9.648;2023-03-26T06:11:27;8.10;1.00
3684;DHT22;1858;48.716;9.648;2023-03-26T06:13:52;8.00;1.00
3684;DHT22;1858;48.716;9.648;2023-03-26T06:16:20;8.00;1.00
3684;DHT22;1858;48.716;9.648;2023-03-26T06:18:49;8.10;1.00
3684;DHT22;1858;48.716;9.648;2023-03-26T06:21:18;8.10;1.00
3684;DHT22;1858;48.716;9.648;2023-03-26T06:23:47;8.20;1.00
3684;DHT22;1858;48.716;9.648;2023-03-26T06:26:17;8.30;1.00
3684;DHT22;1858;48.716;9.648;2023-03-26T06:28:47;8.30;1.00
3684;DHT22;1858;48.716;9.648;2023-03-26T06:31:21;8.30;1.00
3684;DHT22;1858;48.716;9.648;2023-03-26T06:33:56;8.20;1.00
3684;DHT22;1858;48.716;9.648;2023-03-26T06:36:25;8.30;1.00
3684;DHT22;1858;48.716;9.648;2023-03-26T06:38:54;8.30;1.00
3684;DHT22;1858;48.716;9.648;2023-03-26T06:41:23;8.30;1.00
3684;DHT22;1858;48.716;9.648;2023-03-26T06:43:57;8.30;1.00
3684;DHT22;1858;48.716;9.648;2023-03-26T06:46:27;8.10;1.00
3684;DHT22;1858;48.716;9.648;2023-03-26T06:48:58;8.00;1.00
3684;DHT22;1858;48.716;9.648;2023-03-26T06:51:27;8.00;1.00
3684;DHT22;1858;48.716;9.648;2023-03-26T06:53:58;7.90;1.00
3684;DHT22;1858;48.716;9.648;2023-03-26T06:56:28;7.90;1.00
3684;DHT22;1858;48.716;9.648;2023-03-26T06:59:02;7.90;1.00
3684;DHT22;1858;48.716;9.648;2023-03-26T07:01:30;7.70;1.00
3684;DHT22;1858;48.716;9.648;2023-03-26T07:03:59;7.80;35.10
3684;DHT22;1858;48.716;9.648;2023-03-26T07:06:27;7.70;52.20
3684;DHT22;1858;48.716;9.648;2023-03-26T07:08:58;7.70;99.90
3684;DHT22;1858;48.716;9.648;2023-03-26T07:11:34;7.70;99.90
3684;DHT22;1858;48.716;9.648;2023-03-26T07:14:02;7.70;99.90
3684;DHT22;1858;48.716;9.648;2023-03-26T07:16:37;7.80;99.90
3684;DHT22;1858;48.716;9.648;2023-03-26T07:21:35;7.70;99.90
3684;DHT22;1858;48.716;9.648;2023-03-26T07:24:11;7.80;99.90
3684;DHT22;1858;48.716;9.648;2023-03-26T07:29:42;7.70;99.90
3684;DHT22;1858;48.716;9.648;2023-03-26T07:32:39;7.80;99.90
3684;DHT22;1858;48.716;9.648;2023-03-26T07:35:25;7.90;99.90
3684;DHT22;1858;48.716;9.648;2023-03-26T07:46:18;8.50;1.00
3684;DHT22;1858;48.716;9.648;2023-03-26T07:48:56;8.50;1.00
3684;DHT22;1858;48.716;9.648;2023-03-26T07:51:27;8.60;1.00
3684;DHT22;1858;48.716;9.648;2023-03-26T07:53:56;8.60;1.00
3684;DHT22;1858;48.716;9.648;2023-03-26T07:56:52;8.50;1.00
3684;DHT22;1858;48.716;9.648;2023-03-26T07:59:30;8.60;99.90
3684;DHT22;1858;48.716;9.648;2023-03-26T08:02:19;8.60;1.00
3684;DHT22;1858;48.716;9.648;2023-03-26T08:18:22;8.50;1.00
3684;DHT22;1858;48.716;9.648;2023-03-26T08:21:37;8.50;1.00
3684;DHT22;1858;48.716;9.648;2023-03-26T08:23:34;8.70;1.00
3684;DHT22;1858;48.716;9.648;2023-03-26T08:31:13;8.70;1.00
3684;DHT22;1858;48.716;9.648;2023-03-26T08:33:44;8.70;1.00
3684;DHT22;1858;48.716;9.648;2023-03-26T08:36:14;8.60;1.00
3684;DHT22;1858;48.716;9.648;2023-03-26T08:38:44;8.50;71.50
3684;DHT22;1858;48.716;9.648;2023-03-26T08:44:20;8.30;99.90
3684;DHT22;1858;48.716;9.648;2023-03-26T09:01:00;8.70;1.00
3684;DHT22;1858;48.716;9.648;2023-03-26T09:09:15;8.70;1.00
3684;DHT22;1858;48.716;9.648;2023-03-26T09:34:54;9.80;1.00
3684;DHT22;1858;48.716;9.648;2023-03-26T09:42:45;10.30;99.90
3684;DHT22;1858;48.716;9.648;2023-03-26T09:45:51;10.50;99.90
3684;DHT22;1858;48.716;9.648;2023-03-26T09:51:39;11.10;99.90
3684;DHT22;1858;48.716;9.648;2023-03-26T10:03:26;12.50;1.00
3684;DHT22;1858;48.716;9.648;2023-03-26T10:31:42;16.40;1.00
3684;DHT22;1858;48.716;9.648;2023-03-26T10:37:08;16.80;1.00
3684;DHT22;1858;48.716;9.648;2023-03-26T10:45:05;16.70;1.00
3684;DHT22;1858;48.716;9.648;2023-03-26T10:53:03;16.10;1.00
3684;DHT22;1858;48.716;9.648;2023-03-26T10:55:40;16.10;1.40
3684;DHT22;1858;48.716;9.648;2023-03-26T10:58:12;16.20;1.00
3684;DHT22;1858;48.716;9.648;2023-03-26T11:00:50;16.60;99.90
3684;DHT22;1858;48.716;9.648;2023-03-26T11:09:14;17.80;99.90
3684;DHT22;1858;48.716;9.648;2023-03-26T11:11:43;18.20;99.90
3684;DHT22;1858;48.716;9.648;2023-03-26T11:14:20;18.30;99.90
3684;DHT22;1858;48.716;9.648;2023-03-26T11:17:04;18.40;99.90
3684;DHT22;1858;48.716;9.648;2023-03-26T11:19:51;18.60;99.90
3684;DHT22;1858;48.716;9.648;2023-03-26T11:22:30;18.50;99.90
3684;DHT22;1858;48.716;9.648;2023-03-26T11:27:55;18.40;99.90
3684;DHT22;1858;48.716;9.648;2023-03-26T11:33:45;18.00;99.90
3684;DHT22;1858;48.716;9.648;2023-03-26T11:36:25;17.70;99.90
3684;DHT22;1858;48.716;9.648;2023-03-26T11:38:56;17.50;99.90
3684;DHT22;1858;48.716;9.648;2023-03-26T11:41:35;17.50;99.90
3684;DHT22;1858;48.716;9.648;2023-03-26T11:44:25;17.50;99.90
3684;DHT22;1858;48.716;9.648;2023-03-26T11:47:01;17.40;99.90
3684;DHT22;1858;48.716;9.648;2023-03-26T11:49:37;17.20;99.90
3684;DHT22;1858;48.716;9.648;2023-03-26T11:52:11;17.10;99.90
3684;DHT22;1858;48.716;9.648;2023-03-26T11:54:43;17.00;99.90
3684;DHT22;1858;48.716;9.648;2023-03-26T11:57:21;16.70;99.90
3684;DHT22;1858;48.716;9.648;2023-03-26T11:59:56;16.50;99.90
3684;DHT22;1858;48.716;9.648;2023-03-26T12:02:45;16.40;99.90
3684;DHT22;1858;48.716;9.648;2023-03-26T12:05:27;16.40;99.90
3684;DHT22;1858;48.716;9.648;2023-03-26T12:08:02;16.40;99.90
3684;DHT22;1858;48.716;9.648;2023-03-26T12:10:41;16.50;99.90
3684;DHT22;1858;48.716;9.648;2023-03-26T12:15:56;16.10;99.90
3684;DHT22;1858;48.716;9.648;2023-03-26T12:18:26;16.10;99.90
3684;DHT22;1858;48.716;9.648;2023-03-26T12:21:03;15.90;99.90
3684;DHT22;1858;48.716;9.648;2023-03-26T12:23:59;15.70;99.90
3684;DHT22;1858;48.716;9.648;2023-03-26T12:29:18;15.30;99.90
3684;DHT22;1858;48.716;9.648;2023-03-26T12:31:55;15.20;99.90
3684;DHT22;1858;48.716;9.648;2023-03-26T12:34:33;15.30;99.90
3684;DHT22;1858;48.716;9.648;2023-03-26T12:37:28;15.30;99.90
3684;DHT22;1858;48.716;9.648;2023-03-26T12:39:40;15.30;99.90
3684;DHT22;1858;48.716;9.648;2023-03-26T12:42:31;15.30;99.90
3684;DHT22;1858;48.716;9.648;2023-03-26T12:45:03;15.30;99.90
3684;DHT22;1858;48.716;9.648;2023-03-26T12:47:36;15.20;99.90
3684;DHT22;1858;48.716;9.648;2023-03-26T12:50:07;15.00;99.90
3684;DHT22;1858;48.716;9.648;2023-03-26T12:52:55;15.10;99.90
3684;DHT22;1858;48.716;9.648;2023-03-26T13:01:12;15.30;99.90
3684;DHT22;1858;48.716;9.648;2023-03-26T13:06:43;15.40;99.90
3684;DHT22;1858;48.716;9.648;2023-03-26T13:14:57;15.20;99.90
3684;DHT22;1858;48.716;9.648;2023-03-26T13:17:42;15.10;99.90
3684;DHT22;1858;48.716;9.648;2023-03-26T13:20:42;15.20;99.90
3684;DHT22;1858;48.716;9.648;2023-03-26T13:23:11;15.10;99.90
3684;DHT22;1858;48.716;9.648;2023-03-26T13:25:59;15.20;99.90
3684;DHT22;1858;48.716;9.648;2023-03-26T13:32:13;15.40;99.90
3684;DHT22;1858;48.716;9.648;2023-03-26T13:50:28;15.70;99.90
3684;DHT22;1858;48.716;9.648;2023-03-26T13:53:13;15.70;99.90
3684;DHT22;1858;48.716;9.648;2023-03-26T13:55:40;15.70;99.90
3684;DHT22;1858;48.716;9.648;2023-03-26T14:12:13;16.20;99.90
3684;DHT22;1858;48.716;9.648;2023-03-26T14:14:57;16.20;99.90
3684;DHT22;1858;48.716;9.648;2023-03-26T14:20:46;16.20;99.90
3684;DHT22;1858;48.716;9.648;2023-03-26T14:23:47;16.30;99.90
3684;DHT22;1858;48.716;9.648;2023-03-26T14:26:36;16.50;99.90
3684;DHT22;1858;48.716;9.648;2023-03-26T14:29:21;16.50;99.90
3684;DHT22;1858;48.716;9.648;2023-03-26T14:40:20;15.80;99.90
3684;DHT22;1858;48.716;9.648;2023-03-26T14:45:33;15.30;99.90
3684;DHT22;1858;48.716;9.648;2023-03-26T14:53:55;15.20;99.90
3684;DHT22;1858;48.716;9.648;2023-03-26T14:56:28;15.30;99.90
3684;DHT22;1858;48.716;9.648;2023-03-26T15:01:50;15.20;99.90
3684;DHT22;1858;48.716;9.648;2023-03-26T15:07:07;14.80;99.90
3684;DHT22;1858;48.716;9.648;2023-03-26T15:13:04;13.80;99.90
3684;DHT22;1858;48.716;9.648;2023-03-26T15:18:50;13.10;99.90
3684;DHT22;1858;48.716;9.648;2023-03-26T15:21:52;12.90;99.90
3684;DHT22;1858;48.716;9.648;2023-03-26T15:30:19;12.50;99.90
3684;DHT22;1858;48.716;9.648;2023-03-26T15:32:56;12.40;99.90
3684;DHT22;1858;48.716;9.648;2023-03-26T15:40:55;12.00;99.90
3684;DHT22;1858;48.716;9.648;2023-03-26T15:43:31;12.00;1.00
3684;DHT22;1858;48.716;9.648;2023-03-26T15:46:24;12.10;1.00
3684;DHT22;1858;48.716;9.648;2023-03-26T15:49:23;12.10;1.00
3684;DHT22;1858;48.716;9.648;2023-03-26T15:54:59;12.20;1.00
3684;DHT22;1858;48.716;9.648;2023-03-26T15:57:39;12.20;1.00
3684;DHT22;1858;48.716;9.648;2023-03-26T16:11:56;12.00;1.00
3684;DHT22;1858;48.716;9.648;2023-03-26T16:14:45;12.00;1.00
3684;DHT22;1858;48.716;9.648;2023-03-26T16:17:18;11.90;1.00
3684;DHT22;1858;48.716;9.648;2023-03-26T16:25:51;11.80;1.00
3684;DHT22;1858;48.716;9.648;2023-03-26T16:30:40;11.50;1.00
3684;DHT22;1858;48.716;9.648;2023-03-26T16:33:18;11.30;1.00
3684;DHT22;1858;48.716;9.648;2023-03-26T16:36:04;11.10;1.00
3684;DHT22;1858;48.716;9.648;2023-03-26T16:38:52;11.00;1.00
3684;DHT22;1858;48.716;9.648;2023-03-26T16:41:26;11.00;1.00
3684;DHT22;1858;48.716;9.648;2023-03-26T16:44:21;10.90;1.00
3684;DHT22;1858;48.716;9.648;2023-03-26T16:52:54;10.80;1.00
3684;DHT22;1858;48.716;9.648;2023-03-26T16:58:43;10.50;1.00
3684;DHT22;1858;48.716;9.648;2023-03-26T17:01:38;10.40;1.00
3684;DHT22;1858;48.716;9.648;2023-03-26T17:04:17;10.40;1.00
3684;DHT22;1858;48.716;9.648;2023-03-26T17:18:20;10.20;1.00
3684;DHT22;1858;48.716;9.648;2023-03-26T17:21:18;10.10;1.00
3684;DHT22;1858;48.716;9.648;2023-03-26T17:24:03;10.00;1.00
3684;DHT22;1858;48.716;9.648;2023-03-26T17:29:26;9.80;1.00
3684;DHT22;1858;48.716;9.648;2023-03-26T17:40:25;9.50;1.00
3684;DHT22;1858;48.716;9.648;2023-03-26T17:42:27;9.40;1.00
3684;DHT22;1858;48.716;9.648;2023-03-26T17:45:13;9.40;1.00
3684;DHT22;1858;48.716;9.648;2023-03-26T17:47:55;9.40;1.00
3684;DHT22;1858;48.716;9.648;2023-03-26T17:51:00;9.30;1.00
3684;DHT22;1858;48.716;9.648;2023-03-26T17:53:44;9.30;1.00
3684;DHT22;1858;48.716;9.648;2023-03-26T17:56:17;9.30;1.00
3684;DHT22;1858;48.716;9.648;2023-03-26T17:59:04;9.30;1.00
3684;DHT22;1858;48.716;9.648;2023-03-26T18:01:55;9.10;1.00
3684;DHT22;1858;48.716;9.648;2023-03-26T18:04:32;9.10;1.00
3684;DHT22;1858;48.716;9.648;2023-03-26T18:07:31;8.90;1.00
3684;DHT22;1858;48.716;9.648;2023-03-26T18:10:30;8.90;14.30
3684;DHT22;1858;48.716;9.648;2023-03-26T18:20:58;8.80;5.40
3684;DHT22;1858;48.716;9.648;2023-03-26T18:23:37;8.70;1.00
3684;DHT22;1858;48.716;9.648;2023-03-26T18:26:15;8.70;1.00
3684;DHT22;1858;48.716;9.648;2023-03-26T18:29:07;8.70;1.00
3684;DHT22;1858;48.716;9.648;2023-03-26T18:31:24;8.70;1.00
3684;DHT22;1858;48.716;9.648;2023-03-26T18:34:01;8.70;1.00
3684;DHT22;1858;48.716;9.648;2023-03-26T18:36:30;8.70;1.00
3684;DHT22;1858;48.716;9.648;2023-03-26T18:38:59;8.60;1.00
3684;DHT22;1858;48.716;9.648;2023-03-26T18:41:33;8.70;1.00
3684;DHT22;1858;48.716;9.648;2023-03-26T18:44:05;8.70;1.00
3684;DHT22;1858;48.716;9.648;2023-03-26T18:46:34;8.70;2.10
3684;DHT22;1858;48.716;9.648;2023-03-26T18:49:03;8.80;1.00
3684;DHT22;1858;48.716;9.648;2023-03-26T18:51:33;8.90;1.00
3684;DHT22;1858;48.716;9.648;2023-03-26T18:54:05;8.80;1.00
3684;DHT22;1858;48.716;9.648;2023-03-26T18:56:37;8.80;1.00
3684;DHT22;1858;48.716;9.648;2023-03-26T18:59:25;8.80;1.00
3684;DHT22;1858;48.716;9.648;2023-03-26T19:01:58;8.80;1.00
3684;DHT22;1858;48.716;9.648;2023-03-26T19:04:31;8.80;1.00
3684;DHT22;1858;48.716;9.648;2023-03-26T19:07:03;8.90;1.00
3684;DHT22;1858;48.716;9.648;2023-03-26T19:09:33;8.90;1.00
3684;DHT22;1858;48.716;9.648;2023-03-26T19:12:21;8.80;1.00
3684;DHT22;1858;48.716;9.648;2023-03-26T19:15:05;8.90;1.00
3684;DHT22;1858;48.716;9.648;2023-03-26T19:17:43;8.90;1.00
3684;DHT22;1858;48.716;9.648;2023-03-26T19:20:18;8.80;1.00
3684;DHT22;1858;48.716;9.648;2023-03-26T19:22:47;8.80;1.00
3684;DHT22;1858;48.716;9.648;2023-03-26T19:25:38;8.80;1.00
3684;DHT22;1858;48.716;9.648;2023-03-26T19:28:02;8.90;1.00
3684;DHT22;1858;48.716;9.648;2023-03-26T19:30:34;8.80;1.00
3684;DHT22;1858;48.716;9.648;2023-03-26T19:33:17;8.60;1.00
3684;DHT22;1858;48.716;9.648;2023-03-26T19:35:38;8.60;1.00
3684;DHT22;1858;48.716;9.648;2023-03-26T19:38:27;8.50;1.00
3684;DHT22;1858;48.716;9.648;2023-03-26T19:40:56;8.40;1.10
3684;DHT22;1858;48.716;9.648;2023-03-26T19:43:27;8.40;10.60
3684;DHT22;1858;48.716;9.648;2023-03-26T19:46:00;8.30;22.40
3684;DHT22;1858;48.716;9.648;2023-03-26T19:48:32;8.20;42.00
3684;DHT22;1858;48.716;9.648;2023-03-26T19:51:03;8.20;80.80
3684;DHT22;1858;48.716;9.648;2023-03-26T19:53:35;8.10;99.90
3684;DHT22;1858;48.716;9.648;2023-03-26T19:56:14;8.20;99.90
3684;DHT22;1858;48.716;9.648;2023-03-26T19:58:44;8.20;99.90
3684;DHT22;1858;48.716;9.648;2023-03-26T20:01:18;8.30;99.90
3684;DHT22;1858;48.716;9.648;2023-03-26T20:03:54;8.20;99.90
3684;DHT22;1858;48.716;9.648;2023-03-26T20:06:20;8.20;99.90
3684;DHT22;1858;48.716;9.648;2023-03-26T20:08:50;8.30;99.90
3684;DHT22;1858;48.716;9.648;2023-03-26T20:11:21;8.30;99.90
3684;DHT22;1858;48.716;9.648;2023-03-26T20:13:50;8.30;99.90
3684;DHT22;1858;48.716;9.648;2023-03-26T20:18:57;8.40;99.90
3684;DHT22;1858;48.716;9.648;2023-03-26T20:21:29;8.40;99.90
3684;DHT22;1858;48.716;9.648;2023-03-26T20:23:59;8.40;99.90
3684;DHT22;1858;48.716;9.648;2023-03-26T20:26:28;8.40;99.90
3684;DHT22;1858;48.716;9.648;2023-03-26T20:28:57;8.30;99.90
3684;DHT22;1858;48.716;9.648;2023-03-26T20:31:27;8.20;99.90
3684;DHT22;1858;48.716;9.648;2023-03-26T20:33:56;8.10;99.90
3684;DHT22;1858;48.716;9.648;2023-03-26T20:36:25;8.10;99.90
3684;DHT22;1858;48.716;9.648;2023-03-26T20:38:55;8.10;99.90
3684;DHT22;1858;48.716;9.648;2023-03-26T20:41:25;8.10;99.90
3684;DHT22;1858;48.716;9.648;2023-03-26T20:43:54;8.10;99.90
3684;DHT22;1858;48.716;9.648;2023-03-26T20:46:25;8.10;99.90
3684;DHT22;1858;48.716;9.648;2023-03-26T20:48:56;8.10;99.90
3684;DHT22;1858;48.716;9.648;2023-03-26T20:51:26;8.10;99.90
3684;DHT22;1858;48.716;9.648;2023-03-26T20:53:55;8.20;99.90
3684;DHT22;1858;48.716;9.648;2023-03-26T20:56:27;8.20;99.90
3684;DHT22;1858;48.716;9.648;2023-03-26T20:58:56;8.30;99.90
3684;DHT22;1858;48.716;9.648;2023-03-26T21:01:25;8.30;99.90
3684;DHT22;1858;48.716;9.648;2023-03-26T21:03:54;8.30;99.90
3684;DHT22;1858;48.716;9.648;2023-03-26T21:06:23;8.30;99.90
3684;DHT22;1858;48.716;9.648;2023-03-26T21:08:52;8.30;99.90
3684;DHT22;1858;48.716;9.648;2023-03-26T21:11:33;8.30;99.90
3684;DHT22;1858;48.716;9.648;2023-03-26T21:14:05;8.40;99.90
3684;DHT22;1858;48.716;9.648;2023-03-26T21:16:33;8.30;99.90
3684;DHT22;1858;48.716;9.648;2023-03-26T21:19:02;8.40;99.90
3684;DHT22;1858;48.716;9.648;2023-03-26T21:24:19;8.50;99.90
3684;DHT22;1858;48.716;9.648;2023-03-26T21:29:27;8.50;72.90
3684;DHT22;1858;48.716;9.648;2023-03-26T21:31:55;8.50;54.10
3684;DHT22;1858;48.716;9.648;2023-03-26T21:34:24;8.50;49.80
3684;DHT22;1858;48.716;9.648;2023-03-26T21:36:54;8.50;51.00
3684;DHT22;1858;48.716;9.648;2023-03-26T21:39:22;8.60;28.70
3684;DHT22;1858;48.716;9.648;2023-03-26T21:41:51;8.50;18.90
3684;DHT22;1858;48.716;9.648;2023-03-26T21:44:22;8.50;23.50
3684;DHT22;1858;48.716;9.648;2023-03-26T21:46:52;8.60;19.20
3684;DHT22;1858;48.716;9.648;2023-03-26T21:49:21;8.70;4.50
3684;DHT22;1858;48.716;9.648;2023-03-26T21:51:49;8.70;1.00
3684;DHT22;1858;48.716;9.648;2023-03-26T21:54:29;8.60;1.00
3684;DHT22;1858;48.716;9.648;2023-03-26T21:57:05;8.70;1.00
3684;DHT22;1858;48.716;9.648;2023-03-26T22:02:39;8.60;1.00
3684;DHT22;1858;48.716;9.648;2023-03-26T22:05:24;8.50;1.00
3684;DHT22;1858;48.716;9.648;2023-03-26T22:08:03;8.50;35.40
3684;DHT22;1858;48.716;9.648;2023-03-26T22:10:28;8.40;99.60
3684;DHT22;1858;48.716;9.648;2023-03-26T22:12:57;8.40;99.90
3684;DHT22;1858;48.716;9.648;2023-03-26T22:15:26;8.50;99.90
3684;DHT22;1858;48.716;9.648;2023-03-26T22:18:01;8.40;99.90
3684;DHT22;1858;48.716;9.648;2023-03-26T22:20:30;8.40;99.90
3684;DHT22;1858;48.716;9.648;2023-03-26T22:22:58;8.40;99.90
3684;DHT22;1858;48.716;9.648;2023-03-26T22:25:28;8.40;99.90
3684;DHT22;1858;48.716;9.648;2023-03-26T22:27:56;8.30;99.90
3684;DHT22;1858;48.716;9.648;2023-03-26T22:30:25;8.40;99.90
3684;DHT22;1858;48.716;9.648;2023-03-26T22:32:53;8.40;99.90